sensor_id;sensor_type;location;lat;lon;timestamp;temperature;humidity
47226;DHT22;32965;64.142;-21.912;2022-11-15T00:01:49;9.60;94.00
47226;DHT22;32965;64.142;-21.912;2022-11-15T00:04:15;9.50;94.20
47226;DHT22;32965;64.142;-21.912;2022-11-15T00:06:41;9.50;94.40
47226;DHT22;32965;64.142;-21.912;2022-11-15T00:09:07;9.50;94.60
47226;DHT22;32965;64.142;-21.912;2022-11-15T00:11:32;9.50;94.70
47226;DHT22;32965;64.142;-21.912;2022-11-15T00:13:58;9.50;94.80
47226;DHT22;32965;64.142;-21.912;2022-11-15T00:16:24;9.50;95.00
47226;DHT22;32965;64.142;-21.912;2022-11-15T00:18:50;9.50;95.10
47226;DHT22;32965;64.142;-21.912;2022-11-15T00:21:17;9.50;95.20
47226;DHT22;32965;64.142;-21.912;2022-11-15T00:23:43;9.50;95.40
47226;DHT22;32965;64.142;-21.912;2022-11-15T00:26:13;9.40;95.40
47226;DHT22;32965;64.142;-21.912;2022-11-15T00:28:40;9.50;95.50
47226;DHT22;32965;64.142;-21.912;2022-11-15T00:31:09;9.40;95.60
47226;DHT22;32965;64.142;-21.912;2022-11-15T00:33:35;9.40;95.70
47226;DHT22;32965;64.142;-21.912;2022-11-15T00:36:02;9.40;95.70
47226;DHT22;32965;64.142;-21.912;2022-11-15T00:38:33;9.40;95.90
47226;DHT22;32965;64.142;-21.912;2022-11-15T00:40:59;9.40;95.90
47226;DHT22;32965;64.142;-21.912;2022-11-15T00:43:26;9.40;96.10
47226;DHT22;32965;64.142;-21.912;2022-11-15T00:45:51;9.40;96.10
47226;DHT22;32965;64.142;-21.912;2022-11-15T00:48:17;9.40;96.20
47226;DHT22;32965;64.142;-21.912;2022-11-15T00:50:43;9.40;96.20
47226;DHT22;32965;64.142;-21.912;2022-11-15T00:53:09;9.40;96.30
47226;DHT22;32965;64.142;-21.912;2022-11-15T00:55:35;9.30;96.30
47226;DHT22;32965;64.142;-21.912;2022-11-15T00:58:00;9.30;96.30
47226;DHT22;32965;64.142;-21.912;2022-11-15T01:00:26;9.30;96.40
47226;DHT22;32965;64.142;-21.912;2022-11-15T01:02:52;9.30;96.50
47226;DHT22;32965;64.142;-21.912;2022-11-15T01:05:18;9.30;96.50
47226;DHT22;32965;64.142;-21.912;2022-11-15T01:07:43;9.30;96.50
47226;DHT22;32965;64.142;-21.912;2022-11-15T01:10:09;9.30;96.50
47226;DHT22;32965;64.142;-21.912;2022-11-15T01:12:35;9.20;96.60
47226;DHT22;32965;64.142;-21.912;2022-11-15T01:15:01;9.20;96.60
47226;DHT22;32965;64.142;-21.912;2022-11-15T01:17:27;9.20;96.80
47226;DHT22;32965;64.142;-21.912;2022-11-15T01:19:53;9.20;96.70
47226;DHT22;32965;64.142;-21.912;2022-11-15T01:22:18;9.20;96.70
47226;DHT22;32965;64.142;-21.912;2022-11-15T01:24:44;9.20;96.70
47226;DHT22;32965;64.142;-21.912;2022-11-15T01:27:10;9.10;96.80
47226;DHT22;32965;64.142;-21.912;2022-11-15T01:29:36;9.10;96.80
47226;DHT22;32965;64.142;-21.912;2022-11-15T01:32:02;9.10;96.80
47226;DHT22;32965;64.142;-21.912;2022-11-15T01:34:27;9.10;96.80
47226;DHT22;32965;64.142;-21.912;2022-11-15T01:36:53;9.00;96.80
47226;DHT22;32965;64.142;-21.912;2022-11-15T01:39:19;9.10;96.90
47226;DHT22;32965;64.142;-21.912;2022-11-15T01:41:44;9.10;96.90
47226;DHT22;32965;64.142;-21.912;2022-11-15T01:47:03;9.10;96.90
47226;DHT22;32965;64.142;-21.912;2022-11-15T01:49:32;9.00;96.90
47226;DHT22;32965;64.142;-21.912;2022-11-15T01:52:00;9.00;96.90
47226;DHT22;32965;64.142;-21.912;2022-11-15T01:54:26;9.00;96.90
47226;DHT22;32965;64.142;-21.912;2022-11-15T01:56:58;9.00;96.90
47226;DHT22;32965;64.142;-21.912;2022-11-15T01:59:25;8.90;96.90
47226;DHT22;32965;64.142;-21.912;2022-11-15T02:01:51;9.00;96.90
47226;DHT22;32965;64.142;-21.912;2022-11-15T02:04:34;8.90;96.90
47226;DHT22;32965;64.142;-21.912;2022-11-15T02:07:03;9.00;96.90
47226;DHT22;32965;64.142;-21.912;2022-11-15T02:09:30;8.90;96.90
47226;DHT22;32965;64.142;-21.912;2022-11-15T02:11:56;8.90;97.00
47226;DHT22;32965;64.142;-21.912;2022-11-15T02:14:22;9.00;97.00
47226;DHT22;32965;64.142;-21.912;2022-11-15T02:17:13;8.90;97.00
47226;DHT22;32965;64.142;-21.912;2022-11-15T02:29:21;8.90;97.10
47226;DHT22;32965;64.142;-21.912;2022-11-15T02:42:43;8.90;97.20
47226;DHT22;32965;64.142;-21.912;2022-11-15T02:45:37;8.90;97.30
47226;DHT22;32965;64.142;-21.912;2022-11-15T02:48:06;8.90;97.30
47226;DHT22;32965;64.142;-21.912;2022-11-15T02:50:33;8.90;97.30
47226;DHT22;32965;64.142;-21.912;2022-11-15T02:52:58;8.90;97.30
47226;DHT22;32965;64.142;-21.912;2022-11-15T03:00:57;8.90;97.20
47226;DHT22;32965;64.142;-21.912;2022-11-15T03:06:52;8.90;97.20
47226;DHT22;32965;64.142;-21.912;2022-11-15T03:09:35;8.90;97.30
47226;DHT22;32965;64.142;-21.912;2022-11-15T03:12:18;8.90;97.20
47226;DHT22;32965;64.142;-21.912;2022-11-15T03:15:05;8.90;97.20
47226;DHT22;32965;64.142;-21.912;2022-11-15T03:17:44;9.00;97.10
47226;DHT22;32965;64.142;-21.912;2022-11-15T03:20:13;8.90;97.10
47226;DHT22;32965;64.142;-21.912;2022-11-15T03:22:43;8.90;97.20
47226;DHT22;32965;64.142;-21.912;2022-11-15T03:25:12;8.90;97.10
47226;DHT22;32965;64.142;-21.912;2022-11-15T03:27:41;8.90;97.10
47226;DHT22;32965;64.142;-21.912;2022-11-15T03:30:10;8.90;97.10
47226;DHT22;32965;64.142;-21.912;2022-11-15T03:32:56;8.90;97.10
47226;DHT22;32965;64.142;-21.912;2022-11-15T03:35:25;8.90;97.00
47226;DHT22;32965;64.142;-21.912;2022-11-15T03:37:57;8.90;97.10
47226;DHT22;32965;64.142;-21.912;2022-11-15T03:40:29;8.80;97.10
47226;DHT22;32965;64.142;-21.912;2022-11-15T03:45:45;8.80;97.10
47226;DHT22;32965;64.142;-21.912;2022-11-15T03:48:18;8.80;97.20
47226;DHT22;32965;64.142;-21.912;2022-11-15T03:50:47;8.80;97.20
47226;DHT22;32965;64.142;-21.912;2022-11-15T03:53:13;8.80;97.20
47226;DHT22;32965;64.142;-21.912;2022-11-15T03:55:39;8.80;97.20
47226;DHT22;32965;64.142;-21.912;2022-11-15T03:58:05;8.80;97.20
47226;DHT22;32965;64.142;-21.912;2022-11-15T04:00:31;8.80;97.30
47226;DHT22;32965;64.142;-21.912;2022-11-15T04:02:57;8.80;97.30
47226;DHT22;32965;64.142;-21.912;2022-11-15T04:05:23;8.80;97.30
47226;DHT22;32965;64.142;-21.912;2022-11-15T04:07:49;8.80;97.30
47226;DHT22;32965;64.142;-21.912;2022-11-15T04:10:15;8.80;97.30
47226;DHT22;32965;64.142;-21.912;2022-11-15T04:12:45;8.80;97.30
47226;DHT22;32965;64.142;-21.912;2022-11-15T04:15:18;8.70;97.30
47226;DHT22;32965;64.142;-21.912;2022-11-15T04:17:52;8.80;97.30
47226;DHT22;32965;64.142;-21.912;2022-11-15T04:20:26;8.70;97.30
47226;DHT22;32965;64.142;-21.912;2022-11-15T04:23:19;8.80;97.30
47226;DHT22;32965;64.142;-21.912;2022-11-15T04:26:11;8.70;97.30
47226;DHT22;32965;64.142;-21.912;2022-11-15T04:28:38;8.70;97.40
47226;DHT22;32965;64.142;-21.912;2022-11-15T04:31:24;8.70;97.50
47226;DHT22;32965;64.142;-21.912;2022-11-15T04:33:49;8.70;97.50
47226;DHT22;32965;64.142;-21.912;2022-11-15T04:36:15;8.70;97.50
47226;DHT22;32965;64.142;-21.912;2022-11-15T04:38:59;8.70;97.50
47226;DHT22;32965;64.142;-21.912;2022-11-15T04:41:25;8.70;97.50
47226;DHT22;32965;64.142;-21.912;2022-11-15T04:43:51;8.70;97.40
47226;DHT22;32965;64.142;-21.912;2022-11-15T04:46:17;8.70;97.40
47226;DHT22;32965;64.142;-21.912;2022-11-15T04:48:42;8.70;97.40
47226;DHT22;32965;64.142;-21.912;2022-11-15T04:51:08;8.70;97.40
47226;DHT22;32965;64.142;-21.912;2022-11-15T04:53:34;8.70;97.40
47226;DHT22;32965;64.142;-21.912;2022-11-15T04:56:00;8.70;97.40
47226;DHT22;32965;64.142;-21.912;2022-11-15T04:58:25;8.70;97.40
47226;DHT22;32965;64.142;-21.912;2022-11-15T05:00:51;8.70;97.40
47226;DHT22;32965;64.142;-21.912;2022-11-15T05:03:17;8.70;97.40
47226;DHT22;32965;64.142;-21.912;2022-11-15T05:06:01;8.70;97.30
47226;DHT22;32965;64.142;-21.912;2022-11-15T05:08:27;8.70;97.30
47226;DHT22;32965;64.142;-21.912;2022-11-15T05:10:53;8.70;97.20
47226;DHT22;32965;64.142;-21.912;2022-11-15T05:13:18;8.70;97.20
47226;DHT22;32965;64.142;-21.912;2022-11-15T05:15:44;8.70;97.20
47226;DHT22;32965;64.142;-21.912;2022-11-15T05:18:10;8.70;97.20
47226;DHT22;32965;64.142;-21.912;2022-11-15T05:20:36;8.70;97.10
47226;DHT22;32965;64.142;-21.912;2022-11-15T05:23:01;8.70;97.10
47226;DHT22;32965;64.142;-21.912;2022-11-15T05:25:27;8.70;97.10
47226;DHT22;32965;64.142;-21.912;2022-11-15T05:27:53;8.70;97.00
47226;DHT22;32965;64.142;-21.912;2022-11-15T05:30:19;8.70;97.00
47226;DHT22;32965;64.142;-21.912;2022-11-15T05:32:45;8.70;97.00
47226;DHT22;32965;64.142;-21.912;2022-11-15T05:35:26;8.70;97.00
47226;DHT22;32965;64.142;-21.912;2022-11-15T05:37:54;8.70;96.90
47226;DHT22;32965;64.142;-21.912;2022-11-15T05:40:20;8.70;96.90
47226;DHT22;32965;64.142;-21.912;2022-11-15T05:42:46;8.70;96.80
47226;DHT22;32965;64.142;-21.912;2022-11-15T05:45:12;8.70;96.80
47226;DHT22;32965;64.142;-21.912;2022-11-15T05:47:39;8.70;96.80
47226;DHT22;32965;64.142;-21.912;2022-11-15T05:50:05;8.60;96.70
47226;DHT22;32965;64.142;-21.912;2022-11-15T05:52:35;8.70;96.70
47226;DHT22;32965;64.142;-21.912;2022-11-15T05:55:03;8.70;96.70
47226;DHT22;32965;64.142;-21.912;2022-11-15T05:57:30;8.70;96.60
47226;DHT22;32965;64.142;-21.912;2022-11-15T05:59:56;8.70;96.60
47226;DHT22;32965;64.142;-21.912;2022-11-15T06:02:21;8.60;96.50
47226;DHT22;32965;64.142;-21.912;2022-11-15T06:04:47;8.70;96.50
47226;DHT22;32965;64.142;-21.912;2022-11-15T06:07:13;8.70;96.50
47226;DHT22;32965;64.142;-21.912;2022-11-15T06:09:39;8.70;96.40
47226;DHT22;32965;64.142;-21.912;2022-11-15T06:12:05;8.70;96.40
47226;DHT22;32965;64.142;-21.912;2022-11-15T06:14:30;8.70;96.30
47226;DHT22;32965;64.142;-21.912;2022-11-15T06:16:56;8.70;96.30
47226;DHT22;32965;64.142;-21.912;2022-11-15T06:19:22;8.60;96.20
47226;DHT22;32965;64.142;-21.912;2022-11-15T06:21:47;8.60;96.20
47226;DHT22;32965;64.142;-21.912;2022-11-15T06:24:13;8.60;96.10
47226;DHT22;32965;64.142;-21.912;2022-11-15T06:26:39;8.60;96.10
47226;DHT22;32965;64.142;-21.912;2022-11-15T06:29:04;8.60;96.10
47226;DHT22;32965;64.142;-21.912;2022-11-15T06:31:30;8.60;96.10
47226;DHT22;32965;64.142;-21.912;2022-11-15T06:33:56;8.60;96.10
47226;DHT22;32965;64.142;-21.912;2022-11-15T06:36:22;8.60;96.00
47226;DHT22;32965;64.142;-21.912;2022-11-15T06:38:48;8.60;96.00
47226;DHT22;32965;64.142;-21.912;2022-11-15T06:41:14;8.60;95.90
47226;DHT22;32965;64.142;-21.912;2022-11-15T06:43:41;8.60;95.90
47226;DHT22;32965;64.142;-21.912;2022-11-15T06:46:07;8.60;95.80
47226;DHT22;32965;64.142;-21.912;2022-11-15T06:48:33;8.60;95.80
47226;DHT22;32965;64.142;-21.912;2022-11-15T06:51:01;8.60;95.80
47226;DHT22;32965;64.142;-21.912;2022-11-15T06:53:27;8.60;95.80
47226;DHT22;32965;64.142;-21.912;2022-11-15T06:55:53;8.50;95.80
47226;DHT22;32965;64.142;-21.912;2022-11-15T06:58:23;8.50;95.80
47226;DHT22;32965;64.142;-21.912;2022-11-15T07:00:49;8.50;95.80
47226;DHT22;32965;64.142;-21.912;2022-11-15T07:03:14;8.50;95.80
47226;DHT22;32965;64.142;-21.912;2022-11-15T07:05:40;8.50;95.90
47226;DHT22;32965;64.142;-21.912;2022-11-15T07:08:06;8.50;96.00
47226;DHT22;32965;64.142;-21.912;2022-11-15T07:10:31;8.50;96.00
47226;DHT22;32965;64.142;-21.912;2022-11-15T07:12:57;8.50;96.30
47226;DHT22;32965;64.142;-21.912;2022-11-15T07:15:24;8.50;96.20
47226;DHT22;32965;64.142;-21.912;2022-11-15T07:17:51;8.40;96.20
47226;DHT22;32965;64.142;-21.912;2022-11-15T07:20:17;8.40;96.30
47226;DHT22;32965;64.142;-21.912;2022-11-15T07:22:44;8.40;96.40
47226;DHT22;32965;64.142;-21.912;2022-11-15T07:25:12;8.40;96.50
47226;DHT22;32965;64.142;-21.912;2022-11-15T07:27:38;8.40;96.60
47226;DHT22;32965;64.142;-21.912;2022-11-15T07:30:05;8.40;96.70
47226;DHT22;32965;64.142;-21.912;2022-11-15T07:32:31;8.40;96.70
47226;DHT22;32965;64.142;-21.912;2022-11-15T07:34:56;8.40;96.80
47226;DHT22;32965;64.142;-21.912;2022-11-15T07:37:22;8.40;96.80
47226;DHT22;32965;64.142;-21.912;2022-11-15T07:39:48;8.40;96.80
47226;DHT22;32965;64.142;-21.912;2022-11-15T07:42:14;8.40;96.90
47226;DHT22;32965;64.142;-21.912;2022-11-15T07:44:58;8.40;96.80
47226;DHT22;32965;64.142;-21.912;2022-11-15T07:47:23;8.50;96.90
47226;DHT22;32965;64.142;-21.912;2022-11-15T07:49:49;8.50;96.90
47226;DHT22;32965;64.142;-21.912;2022-11-15T07:52:15;8.50;96.90
47226;DHT22;32965;64.142;-21.912;2022-11-15T07:54:41;8.50;96.90
47226;DHT22;32965;64.142;-21.912;2022-11-15T07:57:06;8.50;96.90
47226;DHT22;32965;64.142;-21.912;2022-11-15T07:59:34;8.50;96.90
47226;DHT22;32965;64.142;-21.912;2022-11-15T08:02:00;8.50;97.00
47226;DHT22;32965;64.142;-21.912;2022-11-15T08:04:26;8.50;97.00
47226;DHT22;32965;64.142;-21.912;2022-11-15T08:06:52;8.50;97.00
47226;DHT22;32965;64.142;-21.912;2022-11-15T08:09:17;8.60;97.00
47226;DHT22;32965;64.142;-21.912;2022-11-15T08:11:43;8.60;97.10
47226;DHT22;32965;64.142;-21.912;2022-11-15T08:14:09;8.60;97.10
47226;DHT22;32965;64.142;-21.912;2022-11-15T08:16:34;8.50;97.00
47226;DHT22;32965;64.142;-21.912;2022-11-15T08:19:00;8.60;97.10
47226;DHT22;32965;64.142;-21.912;2022-11-15T08:21:26;8.60;97.10
47226;DHT22;32965;64.142;-21.912;2022-11-15T08:23:51;8.60;97.00
47226;DHT22;32965;64.142;-21.912;2022-11-15T08:26:17;8.60;97.00
47226;DHT22;32965;64.142;-21.912;2022-11-15T08:28:43;8.60;97.00
47226;DHT22;32965;64.142;-21.912;2022-11-15T08:31:17;8.60;97.00
47226;DHT22;32965;64.142;-21.912;2022-11-15T08:33:44;8.60;97.00
47226;DHT22;32965;64.142;-21.912;2022-11-15T08:36:13;8.60;97.00
47226;DHT22;32965;64.142;-21.912;2022-11-15T08:38:40;8.60;97.00
47226;DHT22;32965;64.142;-21.912;2022-11-15T08:41:06;8.60;97.10
47226;DHT22;32965;64.142;-21.912;2022-11-15T08:43:32;8.60;97.00
47226;DHT22;32965;64.142;-21.912;2022-11-15T08:45:58;8.70;97.00
47226;DHT22;32965;64.142;-21.912;2022-11-15T08:48:24;8.70;97.00
47226;DHT22;32965;64.142;-21.912;2022-11-15T08:50:54;8.60;97.00
47226;DHT22;32965;64.142;-21.912;2022-11-15T08:53:20;8.70;97.10
47226;DHT22;32965;64.142;-21.912;2022-11-15T08:55:46;8.70;97.10
47226;DHT22;32965;64.142;-21.912;2022-11-15T08:58:12;8.70;97.10
47226;DHT22;32965;64.142;-21.912;2022-11-15T09:00:37;8.70;97.10
47226;DHT22;32965;64.142;-21.912;2022-11-15T09:03:04;8.70;97.00
47226;DHT22;32965;64.142;-21.912;2022-11-15T09:05:31;8.70;97.00
47226;DHT22;32965;64.142;-21.912;2022-11-15T09:07:57;8.70;97.00
47226;DHT22;32965;64.142;-21.912;2022-11-15T09:10:22;8.70;96.90
47226;DHT22;32965;64.142;-21.912;2022-11-15T09:12:49;8.70;96.90
47226;DHT22;32965;64.142;-21.912;2022-11-15T09:15:16;8.70;96.90
47226;DHT22;32965;64.142;-21.912;2022-11-15T09:17:42;8.70;97.10
47226;DHT22;32965;64.142;-21.912;2022-11-15T09:20:08;8.70;96.90
47226;DHT22;32965;64.142;-21.912;2022-11-15T09:22:35;8.70;96.90
47226;DHT22;32965;64.142;-21.912;2022-11-15T09:25:02;8.80;96.90
47226;DHT22;32965;64.142;-21.912;2022-11-15T09:27:31;8.70;96.80
47226;DHT22;32965;64.142;-21.912;2022-11-15T09:29:57;8.70;96.80
47226;DHT22;32965;64.142;-21.912;2022-11-15T09:32:23;8.70;96.80
47226;DHT22;32965;64.142;-21.912;2022-11-15T09:34:49;8.70;96.80
47226;DHT22;32965;64.142;-21.912;2022-11-15T09:37:16;8.80;96.90
47226;DHT22;32965;64.142;-21.912;2022-11-15T09:39:42;8.80;96.80
47226;DHT22;32965;64.142;-21.912;2022-11-15T09:45:03;8.80;96.70
47226;DHT22;32965;64.142;-21.912;2022-11-15T09:50:36;8.80;96.80
47226;DHT22;32965;64.142;-21.912;2022-11-15T09:53:04;8.80;96.90
47226;DHT22;32965;64.142;-21.912;2022-11-15T09:55:47;8.80;96.90
47226;DHT22;32965;64.142;-21.912;2022-11-15T09:58:26;8.80;96.90
47226;DHT22;32965;64.142;-21.912;2022-11-15T10:01:00;8.80;96.90
47226;DHT22;32965;64.142;-21.912;2022-11-15T10:03:31;8.90;97.00
47226;DHT22;32965;64.142;-21.912;2022-11-15T10:06:01;8.90;97.10
47226;DHT22;32965;64.142;-21.912;2022-11-15T10:08:48;8.90;97.10
47226;DHT22;32965;64.142;-21.912;2022-11-15T10:11:22;9.00;97.20
47226;DHT22;32965;64.142;-21.912;2022-11-15T10:13:50;8.90;97.30
47226;DHT22;32965;64.142;-21.912;2022-11-15T10:16:45;8.90;97.30
47226;DHT22;32965;64.142;-21.912;2022-11-15T10:19:28;9.00;97.20
47226;DHT22;32965;64.142;-21.912;2022-11-15T10:22:35;9.00;97.20
47226;DHT22;32965;64.142;-21.912;2022-11-15T10:25:24;9.00;97.20
47226;DHT22;32965;64.142;-21.912;2022-11-15T10:28:14;9.00;97.30
47226;DHT22;32965;64.142;-21.912;2022-11-15T10:30:43;9.00;97.30
47226;DHT22;32965;64.142;-21.912;2022-11-15T10:33:23;9.00;97.30
47226;DHT22;32965;64.142;-21.912;2022-11-15T10:44:30;9.10;97.30
47226;DHT22;32965;64.142;-21.912;2022-11-15T10:49:31;9.00;97.40
47226;DHT22;32965;64.142;-21.912;2022-11-15T10:52:02;9.00;97.40
47226;DHT22;32965;64.142;-21.912;2022-11-15T10:54:30;9.10;97.40
47226;DHT22;32965;64.142;-21.912;2022-11-15T10:57:00;9.00;97.40
47226;DHT22;32965;64.142;-21.912;2022-11-15T10:59:32;9.10;97.40
47226;DHT22;32965;64.142;-21.912;2022-11-15T11:01:59;9.00;97.40
47226;DHT22;32965;64.142;-21.912;2022-11-15T11:04:25;9.10;97.40
47226;DHT22;32965;64.142;-21.912;2022-11-15T11:06:57;9.10;97.40
47226;DHT22;32965;64.142;-21.912;2022-11-15T11:09:35;9.10;97.40
47226;DHT22;32965;64.142;-21.912;2022-11-15T11:12:03;9.10;97.40
47226;DHT22;32965;64.142;-21.912;2022-11-15T11:14:31;9.10;97.40
47226;DHT22;32965;64.142;-21.912;2022-11-15T11:17:01;9.20;97.40
47226;DHT22;32965;64.142;-21.912;2022-11-15T11:22:31;9.20;97.30
47226;DHT22;32965;64.142;-21.912;2022-11-15T11:25:22;9.30;97.50
47226;DHT22;32965;64.142;-21.912;2022-11-15T11:33:36;9.40;97.20
47226;DHT22;32965;64.142;-21.912;2022-11-15T11:36:24;9.40;97.20
47226;DHT22;32965;64.142;-21.912;2022-11-15T11:39:17;9.40;97.10
47226;DHT22;32965;64.142;-21.912;2022-11-15T11:52:10;9.70;97.10
47226;DHT22;32965;64.142;-21.912;2022-11-15T11:54:54;9.70;97.10
47226;DHT22;32965;64.142;-21.912;2022-11-15T12:02:38;9.80;96.90
47226;DHT22;32965;64.142;-21.912;2022-11-15T12:05:25;9.90;96.90
47226;DHT22;32965;64.142;-21.912;2022-11-15T12:07:56;10.00;96.80
47226;DHT22;32965;64.142;-21.912;2022-11-15T12:10:29;10.00;96.80
47226;DHT22;32965;64.142;-21.912;2022-11-15T12:13:04;10.10;96.80
47226;DHT22;32965;64.142;-21.912;2022-11-15T12:15:41;10.10;96.70
47226;DHT22;32965;64.142;-21.912;2022-11-15T12:18:13;10.20;96.70
47226;DHT22;32965;64.142;-21.912;2022-11-15T12:20:49;10.20;96.60
47226;DHT22;32965;64.142;-21.912;2022-11-15T12:23:25;10.30;96.60
47226;DHT22;32965;64.142;-21.912;2022-11-15T12:26:16;10.30;96.50
47226;DHT22;32965;64.142;-21.912;2022-11-15T12:28:56;10.40;96.50
47226;DHT22;32965;64.142;-21.912;2022-11-15T12:31:32;10.40;96.40
47226;DHT22;32965;64.142;-21.912;2022-11-15T12:34:03;10.50;96.40
47226;DHT22;32965;64.142;-21.912;2022-11-15T12:36:38;10.60;96.30
47226;DHT22;32965;64.142;-21.912;2022-11-15T12:39:08;10.60;96.30
47226;DHT22;32965;64.142;-21.912;2022-11-15T12:41:37;10.60;96.20
47226;DHT22;32965;64.142;-21.912;2022-11-15T12:44:03;10.70;96.20
47226;DHT22;32965;64.142;-21.912;2022-11-15T12:49:11;10.80;96.00
47226;DHT22;32965;64.142;-21.912;2022-11-15T13:17:49;11.40;95.20
47226;DHT22;32965;64.142;-21.912;2022-11-15T13:28:02;11.50;94.60
47226;DHT22;32965;64.142;-21.912;2022-11-15T13:30:34;11.50;94.60
47226;DHT22;32965;64.142;-21.912;2022-11-15T13:33:08;11.50;94.50
47226;DHT22;32965;64.142;-21.912;2022-11-15T13:35:38;11.60;94.60
47226;DHT22;32965;64.142;-21.912;2022-11-15T13:38:06;11.60;94.30
47226;DHT22;32965;64.142;-21.912;2022-11-15T13:40:36;11.60;94.20
47226;DHT22;32965;64.142;-21.912;2022-11-15T13:48:33;11.70;94.00
47226;DHT22;32965;64.142;-21.912;2022-11-15T13:51:04;11.60;93.90
47226;DHT22;32965;64.142;-21.912;2022-11-15T13:53:33;11.60;93.90
47226;DHT22;32965;64.142;-21.912;2022-11-15T13:56:00;11.70;93.80
47226;DHT22;32965;64.142;-21.912;2022-11-15T13:58:27;11.70;93.80
47226;DHT22;32965;64.142;-21.912;2022-11-15T14:01:04;11.70;93.80
47226;DHT22;32965;64.142;-21.912;2022-11-15T14:03:36;11.70;93.70
47226;DHT22;32965;64.142;-21.912;2022-11-15T14:06:14;11.70;93.60
47226;DHT22;32965;64.142;-21.912;2022-11-15T14:11:34;11.80;93.50
47226;DHT22;32965;64.142;-21.912;2022-11-15T14:16:35;11.70;93.30
47226;DHT22;32965;64.142;-21.912;2022-11-15T14:19:03;11.70;93.30
47226;DHT22;32965;64.142;-21.912;2022-11-15T14:21:29;11.70;93.20
47226;DHT22;32965;64.142;-21.912;2022-11-15T14:24:18;11.70;93.10
47226;DHT22;32965;64.142;-21.912;2022-11-15T14:26:44;11.70;93.00
47226;DHT22;32965;64.142;-21.912;2022-11-15T14:31:49;11.70;92.90
47226;DHT22;32965;64.142;-21.912;2022-11-15T14:34:15;11.70;92.90
47226;DHT22;32965;64.142;-21.912;2022-11-15T14:36:40;11.70;92.80
47226;DHT22;32965;64.142;-21.912;2022-11-15T14:39:06;11.70;92.70
47226;DHT22;32965;64.142;-21.912;2022-11-15T14:41:35;11.70;92.70
47226;DHT22;32965;64.142;-21.912;2022-11-15T14:44:04;11.70;92.60
47226;DHT22;32965;64.142;-21.912;2022-11-15T14:46:30;11.70;92.60
47226;DHT22;32965;64.142;-21.912;2022-11-15T14:48:56;11.70;92.60
47226;DHT22;32965;64.142;-21.912;2022-11-15T14:51:22;11.70;92.60
47226;DHT22;32965;64.142;-21.912;2022-11-15T14:53:47;11.70;92.60
47226;DHT22;32965;64.142;-21.912;2022-11-15T14:56:14;11.70;92.60
47226;DHT22;32965;64.142;-21.912;2022-11-15T14:58:40;11.70;92.60
47226;DHT22;32965;64.142;-21.912;2022-11-15T15:01:22;11.80;92.60
47226;DHT22;32965;64.142;-21.912;2022-11-15T15:03:48;11.80;92.50
47226;DHT22;32965;64.142;-21.912;2022-11-15T15:06:17;11.80;92.60
47226;DHT22;32965;64.142;-21.912;2022-11-15T15:08:43;11.80;92.60
47226;DHT22;32965;64.142;-21.912;2022-11-15T15:11:21;11.80;92.60
47226;DHT22;32965;64.142;-21.912;2022-11-15T15:13:47;11.80;92.60
47226;DHT22;32965;64.142;-21.912;2022-11-15T15:16:13;11.80;92.70
47226;DHT22;32965;64.142;-21.912;2022-11-15T15:18:39;11.70;93.00
47226;DHT22;32965;64.142;-21.912;2022-11-15T15:23:46;11.80;92.60
47226;DHT22;32965;64.142;-21.912;2022-11-15T15:26:12;11.80;92.70
47226;DHT22;32965;64.142;-21.912;2022-11-15T15:28:37;11.80;92.70
47226;DHT22;32965;64.142;-21.912;2022-11-15T15:31:04;11.80;92.70
47226;DHT22;32965;64.142;-21.912;2022-11-15T15:33:31;11.80;92.70
47226;DHT22;32965;64.142;-21.912;2022-11-15T15:35:57;11.80;92.70
47226;DHT22;32965;64.142;-21.912;2022-11-15T15:38:22;11.90;92.70
47226;DHT22;32965;64.142;-21.912;2022-11-15T15:40:48;11.80;92.70
47226;DHT22;32965;64.142;-21.912;2022-11-15T15:43:14;11.90;92.80
47226;DHT22;32965;64.142;-21.912;2022-11-15T15:45:41;11.90;92.80
47226;DHT22;32965;64.142;-21.912;2022-11-15T15:48:17;11.90;92.80
47226;DHT22;32965;64.142;-21.912;2022-11-15T15:50:43;11.90;92.80
47226;DHT22;32965;64.142;-21.912;2022-11-15T15:53:10;11.90;92.80
47226;DHT22;32965;64.142;-21.912;2022-11-15T15:55:37;11.90;92.80
47226;DHT22;32965;64.142;-21.912;2022-11-15T15:58:03;11.90;92.80
47226;DHT22;32965;64.142;-21.912;2022-11-15T16:00:29;11.90;92.80
47226;DHT22;32965;64.142;-21.912;2022-11-15T16:02:58;11.90;92.80
47226;DHT22;32965;64.142;-21.912;2022-11-15T16:05:23;11.90;92.80
47226;DHT22;32965;64.142;-21.912;2022-11-15T16:07:49;11.90;92.80
47226;DHT22;32965;64.142;-21.912;2022-11-15T16:10:22;11.90;92.70
47226;DHT22;32965;64.142;-21.912;2022-11-15T16:12:50;12.00;92.70
47226;DHT22;32965;64.142;-21.912;2022-11-15T16:15:16;12.00;92.70
47226;DHT22;32965;64.142;-21.912;2022-11-15T16:17:50;12.00;92.70
47226;DHT22;32965;64.142;-21.912;2022-11-15T16:22:59;12.00;92.60
47226;DHT22;32965;64.142;-21.912;2022-11-15T16:25:25;12.00;92.60
47226;DHT22;32965;64.142;-21.912;2022-11-15T16:27:51;12.00;92.50
47226;DHT22;32965;64.142;-21.912;2022-11-15T16:30:19;12.00;92.50
47226;DHT22;32965;64.142;-21.912;2022-11-15T16:32:45;12.00;92.40
47226;DHT22;32965;64.142;-21.912;2022-11-15T16:35:15;12.00;92.40
47226;DHT22;32965;64.142;-21.912;2022-11-15T16:37:42;12.00;92.30
47226;DHT22;32965;64.142;-21.912;2022-11-15T16:42:50;12.00;92.10
47226;DHT22;32965;64.142;-21.912;2022-11-15T16:45:16;11.90;92.00
47226;DHT22;32965;64.142;-21.912;2022-11-15T16:47:42;12.00;92.00
47226;DHT22;32965;64.142;-21.912;2022-11-15T16:50:29;12.00;91.90
47226;DHT22;32965;64.142;-21.912;2022-11-15T16:52:56;12.00;91.80
47226;DHT22;32965;64.142;-21.912;2022-11-15T16:55:24;12.00;91.90
47226;DHT22;32965;64.142;-21.912;2022-11-15T16:57:51;12.00;91.80
47226;DHT22;32965;64.142;-21.912;2022-11-15T17:00:18;12.00;91.80
47226;DHT22;32965;64.142;-21.912;2022-11-15T17:02:46;12.00;91.80
47226;DHT22;32965;64.142;-21.912;2022-11-15T17:05:13;11.90;91.80
47226;DHT22;32965;64.142;-21.912;2022-11-15T17:07:39;12.00;91.80
47226;DHT22;32965;64.142;-21.912;2022-11-15T17:10:05;12.00;91.80
47226;DHT22;32965;64.142;-21.912;2022-11-15T17:12:33;12.00;91.90
47226;DHT22;32965;64.142;-21.912;2022-11-15T17:14:59;11.90;91.90
47226;DHT22;32965;64.142;-21.912;2022-11-15T17:17:24;11.90;91.90
47226;DHT22;32965;64.142;-21.912;2022-11-15T17:19:51;11.90;91.90
47226;DHT22;32965;64.142;-21.912;2022-11-15T17:22:18;11.90;91.90
47226;DHT22;32965;64.142;-21.912;2022-11-15T17:24:44;12.00;92.00
47226;DHT22;32965;64.142;-21.912;2022-11-15T17:27:10;12.00;91.90
47226;DHT22;32965;64.142;-21.912;2022-11-15T17:29:35;12.00;91.80
47226;DHT22;32965;64.142;-21.912;2022-11-15T17:32:01;12.10;91.80
47226;DHT22;32965;64.142;-21.912;2022-11-15T17:34:27;12.10;91.80
47226;DHT22;32965;64.142;-21.912;2022-11-15T17:36:53;12.10;91.90
47226;DHT22;32965;64.142;-21.912;2022-11-15T17:39:18;12.10;91.80